Time;durP1;ratioP1;P1;durP2;ratioP2;P2;SDS_P1;SDS_P2;PMS_P1;PMS_P2;Temp;Humidity;BMP_temperature;BMP_pressure;BME280_temperature;BME280_humidity;BME280_pressure;Samples;Min_cycle;Max_cycle;Signal;HPM_P1;HPM_P2
2021/03/27 00:01:18;;;;;;;14.40;9.68;;;8.90;99.90;;;;;;4953162;29;20053;-88
2021/03/27 00:03:55;;;;;;;15.45;10.23;;;8.90;99.90;;;;;;4971596;28;20061;-87
2021/03/27 00:06:33;;;;;;;18.73;9.50;;;8.80;99.90;;;;;;4955926;29;20099;-89
2021/03/27 00:09:20;;;;;;;13.30;9.68;;;8.90;99.90;;;;;;4957327;29;20094;-86
2021/03/27 00:12:19;;;;;;;15.93;9.95;;;8.90;99.90;;;;;;4969851;29;20114;-90
2021/03/27 00:14:48;;;;;;;17.92;10.20;;;8.90;99.90;;;;;;4968903;29;20055;-88
2021/03/27 00:17:44;;;;;;;13.65;8.95;;;8.90;99.90;;;;;;4945528;29;20126;-88
2021/03/27 00:20:41;;;;;;;12.95;8.82;;;9.00;99.90;;;;;;4937361;29;20061;-88
2021/03/27 00:23:31;;;;;;;13.23;8.40;;;9.00;99.90;;;;;;4936926;29;20082;-88
2021/03/27 00:26:10;;;;;;;12.75;8.23;;;9.10;99.90;;;;;;4950427;29;20079;-87
2021/03/27 00:28:44;;;;;;;15.63;8.45;;;9.00;99.90;;;;;;4951486;29;20050;-89
2021/03/27 00:31:15;;;;;;;11.23;8.90;;;9.00;99.90;;;;;;4973235;28;20075;-89
2021/03/27 00:33:46;;;;;;;10.60;8.30;;;8.90;99.90;;;;;;4952059;29;20345;-87
2021/03/27 00:36:19;;;;;;;12.17;8.60;;;8.80;99.90;;;;;;4951029;29;20054;-88
2021/03/27 00:39:00;;;;;;;12.48;8.95;;;8.80;99.90;;;;;;4942923;29;20053;-86
2021/03/27 00:41:43;;;;;;;12.32;8.15;;;8.70;99.90;;;;;;4942967;29;20062;-89
2021/03/27 00:44:14;;;;;;;14.18;8.23;;;8.60;99.90;;;;;;4938198;29;20047;-90
2021/03/27 00:46:43;;;;;;;11.73;8.70;;;8.60;99.90;;;;;;4959010;29;20397;-88
2021/03/27 00:49:35;;;;;;;13.43;8.20;;;8.50;99.90;;;;;;4958747;29;20051;-91
2021/03/27 00:52:08;;;;;;;11.52;8.65;;;8.40;99.90;;;;;;4945988;29;20051;-88
2021/03/27 00:54:46;;;;;;;12.38;8.23;;;8.40;99.90;;;;;;4954059;29;20043;-88
2021/03/27 00:57:20;;;;;;;12.40;8.68;;;8.40;99.90;;;;;;4941249;29;20058;-88
2021/03/27 01:00:11;;;;;;;13.93;8.75;;;8.30;99.90;;;;;;4958159;29;20126;-88
2021/03/27 01:02:46;;;;;;;12.50;8.60;;;8.30;99.90;;;;;;4957277;29;20113;-86
2021/03/27 01:05:18;;;;;;;12.95;8.35;;;8.30;99.90;;;;;;4957200;29;20130;-88
2021/03/27 01:07:47;;;;;;;11.45;8.00;;;8.20;99.90;;;;;;4958054;29;20146;-89
2021/03/27 01:10:58;;;;;;;12.50;8.70;;;8.20;99.90;;;;;;4941475;29;20464;-88
2021/03/27 01:13:31;;;;;;;;;;;8.20;99.90;;;;;;4954952;29;20059;-87
2021/03/27 01:16:01;;;;;;;11.88;8.32;;;8.20;99.90;;;;;;4956842;29;19922;-89
2021/03/27 01:18:39;;;;;;;11.57;8.95;;;8.20;99.90;;;;;;4957399;29;20334;-88
2021/03/27 01:21:11;;;;;;;10.95;8.98;;;8.20;99.90;;;;;;4940770;29;20115;-88
2021/03/27 01:23:38;;;;;;;13.73;9.67;;;8.20;99.90;;;;;;4940606;29;20090;-86
2021/03/27 01:26:20;;;;;;;13.00;9.73;;;8.20;99.90;;;;;;4940264;29;20303;-90
2021/03/27 01:28:57;;;;;;;14.77;8.95;;;8.20;99.90;;;;;;4940949;29;20465;-89
2021/03/27 01:31:41;;;;;;;13.35;9.38;;;8.30;99.90;;;;;;4957346;29;20098;-89
2021/03/27 01:34:39;;;;;;;12.07;8.73;;;8.20;99.90;;;;;;4939885;29;20106;-88
2021/03/27 01:37:11;;;;;;;12.13;9.13;;;8.30;99.90;;;;;;4940593;29;20126;-88
2021/03/27 01:40:11;;;;;;;14.60;9.55;;;8.30;99.90;;;;;;4958323;28;20055;-88
2021/03/27 01:43:07;;;;;;;15.13;9.57;;;8.30;99.90;;;;;;4943123;29;20079;-88
2021/03/27 01:46:14;;;;;;;12.57;9.10;;;8.20;99.90;;;;;;4955213;29;20130;-86
2021/03/27 01:48:59;;;;;;;14.90;10.27;;;8.10;99.90;;;;;;4960169;29;20540;-87
2021/03/27 01:51:40;;;;;;;14.95;10.25;;;8.00;99.90;;;;;;4960119;29;20055;-88
2021/03/27 01:54:13;;;;;;;16.60;10.73;;;8.00;99.90;;;;;;4937114;29;20059;-89
2021/03/27 01:57:04;;;;;;;17.63;11.23;;;7.90;99.90;;;;;;4959896;29;20058;-87
2021/03/27 01:59:36;;;;;;;15.70;10.75;;;7.90;99.90;;;;;;4939581;29;20110;-85
2021/03/27 02:02:23;;;;;;;14.32;10.50;;;7.90;99.90;;;;;;4943533;29;20051;-88
2021/03/27 02:05:03;;;;;;;16.05;10.70;;;8.00;99.90;;;;;;4960938;29;20130;-88
2021/03/27 02:07:44;;;;;;;15.88;10.90;;;7.90;99.90;;;;;;4955883;29;20189;-86
2021/03/27 02:10:52;;;;;;;16.67;11.98;;;7.90;99.90;;;;;;4948622;29;20047;-88
2021/03/27 02:16:48;;;;;;;17.48;11.25;;;7.90;99.90;;;;;;5170359;27;20703;-88
2021/03/27 02:19:35;;;;;;;15.65;11.20;;;7.90;99.90;;;;;;5163210;27;20051;-86
2021/03/27 02:22:27;;;;;;;15.30;10.93;;;7.90;99.90;;;;;;5159022;27;20070;-89
2021/03/27 02:25:13;;;;;;;16.45;12.10;;;7.90;99.90;;;;;;5156192;27;20103;-88
2021/03/27 02:28:04;;;;;;;16.60;11.48;;;7.90;99.90;;;;;;5165753;27;20047;-88
2021/03/27 02:30:59;;;;;;;21.38;12.55;;;7.80;99.90;;;;;;5152788;27;20043;-85
2021/03/27 02:33:58;;;;;;;18.45;11.75;;;7.80;99.90;;;;;;5158484;27;20370;-87
2021/03/27 02:36:47;;;;;;;19.50;13.10;;;7.80;99.90;;;;;;5169942;27;20096;-88
2021/03/27 02:39:19;;;;;;;19.00;12.32;;;7.80;99.90;;;;;;5157855;27;20134;-89
2021/03/27 02:41:56;;;;;;;21.40;12.30;;;7.80;99.90;;;;;;5168253;27;20055;-87
2021/03/27 02:44:38;;;;;;;20.33;12.93;;;7.80;99.90;;;;;;5164599;27;20054;-88
2021/03/27 02:47:46;;;;;;;16.63;11.82;;;7.80;99.90;;;;;;5155319;27;20089;-86
2021/03/27 02:50:22;;;;;;;17.17;11.65;;;7.70;99.90;;;;;;5152696;27;20043;-90
2021/03/27 02:53:16;;;;;;;18.52;13.07;;;7.70;99.90;;;;;;5154447;27;20070;-88
2021/03/27 02:56:22;;;;;;;15.95;10.55;;;7.70;99.90;;;;;;5153951;27;20042;-87
2021/03/27 02:59:13;;;;;;;12.93;9.43;;;7.60;99.90;;;;;;5142569;27;20494;-88
2021/03/27 03:02:14;;;;;;;18.50;11.50;;;7.60;99.90;;;;;;5155047;27;20118;-88
2021/03/27 03:04:56;;;;;;;17.27;10.63;;;7.60;99.90;;;;;;5134305;28;20447;-86
2021/03/27 03:07:42;;;;;;;14.45;9.70;;;7.60;99.90;;;;;;5150416;27;20138;-88
2021/03/27 03:10:40;;;;;;;10.00;7.38;;;7.60;99.90;;;;;;5166457;27;20039;-89
2021/03/27 03:13:37;;;;;;;10.50;7.40;;;7.60;99.90;;;;;;5165587;27;20050;-86
2021/03/27 03:16:21;;;;;;;10.65;5.80;;;7.60;99.90;;;;;;5167463;27;20099;-89
2021/03/27 03:19:14;;;;;;;9.40;5.72;;;7.60;99.90;;;;;;5169370;27;20079;-88
2021/03/27 03:21:52;;;;;;;10.57;5.85;;;7.60;99.90;;;;;;5162230;27;20046;-87
2021/03/27 03:24:27;;;;;;;8.48;5.82;;;7.60;99.90;;;;;;5156872;27;20123;-88
2021/03/27 03:27:10;;;;;;;6.05;4.57;;;7.50;99.90;;;;;;5127863;27;20490;-87
2021/03/27 03:29:39;;;;;;;7.88;5.22;;;7.50;99.90;;;;;;5140754;27;20107;-88
2021/03/27 03:32:31;;;;;;;6.97;4.55;;;7.60;99.90;;;;;;5140699;27;20486;-89
2021/03/27 03:35:15;;;;;;;5.93;4.50;;;7.60;99.90;;;;;;5128207;27;20050;-88
2021/03/27 03:38:11;;;;;;;5.03;4.40;;;7.60;99.90;;;;;;5140085;27;20127;-89
2021/03/27 03:41:16;;;;;;;6.90;4.93;;;7.60;99.90;;;;;;5128879;27;20663;-87
2021/03/27 03:44:13;;;;;;;8.25;5.50;;;7.60;99.90;;;;;;5099486;28;20048;-87
2021/03/27 03:46:55;;;;;;;7.53;3.20;;;7.60;99.90;;;;;;5095009;28;20056;-85
2021/03/27 03:49:41;;;;;;;2.88;2.22;;;7.20;99.90;;;;;;5097517;28;20085;-85
2021/03/27 03:52:26;;;;;;;2.60;1.95;;;6.80;99.90;;;;;;5099896;28;20079;-85
2021/03/27 03:55:01;;;;;;;1.33;1.23;;;6.50;99.90;;;;;;5098412;28;20043;-86
2021/03/27 03:57:42;;;;;;;1.50;1.40;;;6.30;99.90;;;;;;5098438;28;20481;-87
2021/03/27 04:00:23;;;;;;;1.33;1.23;;;6.10;99.90;;;;;;5113320;28;20446;-86
2021/03/27 04:03:09;;;;;;;5.95;1.60;;;6.00;99.90;;;;;;5098443;28;20067;-86
2021/03/27 04:05:43;;;;;;;1.40;1.30;;;5.90;99.90;;;;;;5114106;28;20056;-86
2021/03/27 04:08:36;;;;;;;2.40;1.60;;;5.80;99.90;;;;;;5113959;28;20107;-85
2021/03/27 04:11:35;;;;;;;1.40;1.30;;;5.80;99.90;;;;;;5113462;28;20112;-86
2021/03/27 04:14:15;;;;;;;3.13;1.73;;;5.80;99.90;;;;;;5120923;27;20339;-86
2021/03/27 04:16:45;;;;;;;2.70;1.92;;;5.70;99.90;;;;;;5137483;27;20067;-85
2021/03/27 04:19:19;;;;;;;3.65;1.58;;;5.70;99.90;;;;;;5138913;27;20074;-86
2021/03/27 04:22:23;;;;;;;1.67;1.52;;;5.60;99.90;;;;;;5133561;27;20067;-86
2021/03/27 04:25:24;;;;;;;2.75;1.48;;;5.60;99.90;;;;;;5124708;27;20515;-85
2021/03/27 04:28:09;;;;;;;1.48;1.38;;;5.60;99.90;;;;;;5122146;27;20111;-85
2021/03/27 04:30:41;;;;;;;3.58;1.80;;;5.50;99.90;;;;;;5135840;27;20068;-85
2021/03/27 04:33:49;;;;;;;3.20;1.95;;;5.50;99.90;;;;;;5132276;27;20043;-86
2021/03/27 04:36:25;;;;;;;3.05;2.30;;;5.40;99.90;;;;;;5112633;27;20047;-85
2021/03/27 04:38:58;;;;;;;1.73;1.50;;;5.40;99.90;;;;;;5133505;27;20108;-85
2021/03/27 04:41:33;;;;;;;2.47;1.80;;;5.40;99.90;;;;;;5132640;27;20055;-86
2021/03/27 04:44:22;;;;;;;2.03;1.52;;;5.40;99.90;;;;;;5136116;27;20112;-86
2021/03/27 04:47:01;;;;;;;1.73;1.63;;;5.40;99.90;;;;;;5179553;27;20117;-87
2021/03/27 04:49:44;;;;;;;1.63;1.50;;;5.40;99.90;;;;;;5152601;27;20047;-87
2021/03/27 04:52:27;;;;;;;2.30;1.70;;;5.40;99.90;;;;;;5143837;27;20026;-87
2021/03/27 04:55:15;;;;;;;1.60;1.50;;;5.30;99.90;;;;;;5142303;27;20126;-86
2021/03/27 04:58:06;;;;;;;1.90;1.48;;;5.20;99.90;;;;;;5131470;27;20435;-86
2021/03/27 05:00:49;;;;;;;1.90;1.70;;;5.20;99.90;;;;;;5135039;27;20047;-89
2021/03/27 05:03:40;;;;;;;2.50;2.20;;;5.10;99.90;;;;;;5134754;27;20468;-88
2021/03/27 05:06:23;;;;;;;1.30;1.20;;;5.00;99.90;;;;;;5135682;27;20050;-86
2021/03/27 05:09:01;;;;;;;2.08;1.40;;;5.00;99.90;;;;;;5136283;27;20058;-88
2021/03/27 05:11:39;;;;;;;1.20;1.10;;;5.00;99.90;;;;;;5136027;27;20379;-86
2021/03/27 05:14:25;;;;;;;1.02;1.02;;;4.90;99.90;;;;;;5137486;27;20081;-84
2021/03/27 05:17:07;;;;;;;1.17;1.08;;;4.90;99.90;;;;;;5140339;27;20055;-86
2021/03/27 05:19:44;;;;;;;1.35;1.10;;;5.00;99.90;;;;;;5139845;27;20043;-86
2021/03/27 05:22:26;;;;;;;2.15;0.80;;;5.00;99.90;;;;;;5144320;27;20046;-88
2021/03/27 05:24:55;;;;;;;1.50;1.17;;;5.00;99.90;;;;;;5140458;27;20063;-85
2021/03/27 05:27:46;;;;;;;1.10;0.95;;;5.00;99.90;;;;;;5138044;27;20058;-84
2021/03/27 05:30:24;;;;;;;0.90;0.90;;;5.00;99.90;;;;;;5136663;27;20047;-87
2021/03/27 05:33:27;;;;;;;1.58;1.48;;;5.00;99.90;;;;;;5136794;27;20138;-86
2021/03/27 05:36:23;;;;;;;1.33;0.80;;;5.00;99.90;;;;;;5134969;27;20129;-85
2021/03/27 05:39:02;;;;;;;1.15;0.90;;;4.90;99.90;;;;;;5136655;27;20448;-85
2021/03/27 05:41:40;;;;;;;2.55;1.10;;;5.00;99.90;;;;;;5134441;27;20054;-86
2021/03/27 05:44:26;;;;;;;1.17;0.90;;;5.00;99.90;;;;;;5135310;27;20054;-82
2021/03/27 05:47:17;;;;;;;1.65;0.95;;;5.00;99.90;;;;;;5135385;27;20167;-85
2021/03/27 05:50:07;;;;;;;1.02;1.02;;;5.00;99.90;;;;;;5135013;27;20047;-86
2021/03/27 05:52:37;;;;;;;0.98;0.90;;;5.00;99.90;;;;;;5118259;27;20146;-84
2021/03/27 05:55:23;;;;;;;1.75;1.00;;;5.00;99.90;;;;;;5122752;27;20043;-82
2021/03/27 05:58:01;;;;;;;0.80;0.75;;;5.00;99.90;;;;;;5128354;27;20066;-84
2021/03/27 06:00:36;;;;;;;1.95;1.33;;;5.00;99.90;;;;;;5134992;27;20082;-82
2021/03/27 06:03:39;;;;;;;2.88;1.10;;;5.00;99.90;;;;;;5134950;27;20352;-83
2021/03/27 06:06:37;;;;;;;1.48;1.25;;;5.10;99.90;;;;;;5129452;27;20479;-82
2021/03/27 06:09:25;;;;;;;0.90;0.90;;;5.10;99.90;;;;;;5135301;27;20209;-84
2021/03/27 06:12:19;;;;;;;4.88;1.40;;;5.10;99.90;;;;;;5133881;27;20492;-81
2021/03/27 06:15:33;;;;;;;1.40;1.00;;;5.20;99.90;;;;;;5132870;27;20437;-86
2021/03/27 06:18:24;;;;;;;1.50;1.00;;;5.30;99.90;;;;;;5143558;27;20122;-86
2021/03/27 06:21:14;;;;;;;1.20;1.10;;;5.50;99.90;;;;;;5131428;28;20039;-86
2021/03/27 06:23:58;;;;;;;2.33;1.08;;;5.70;99.90;;;;;;5145835;28;20032;-85
2021/03/27 06:27:09;;;;;;;3.03;1.10;;;6.10;99.90;;;;;;5147269;27;20051;-84
2021/03/27 06:34:07;;;;;;;2.10;1.58;;;6.00;99.90;;;;;;5135368;28;20118;-87
2021/03/27 06:37:11;;;;;;;2.90;1.50;;;5.90;99.90;;;;;;5144600;27;20388;-88
2021/03/27 06:48:03;;;;;;;3.67;1.70;;;5.60;99.90;;;;;;5107807;28;20127;-87
2021/03/27 06:50:58;;;;;;;2.60;1.90;;;5.60;99.90;;;;;;5126023;28;20051;-87
2021/03/27 06:54:02;;;;;;;3.45;1.55;;;5.50;99.90;;;;;;5130394;27;20205;-87
2021/03/27 06:57:04;;;;;;;1.75;1.50;;;5.60;99.90;;;;;;5283893;22;20064;-87
2021/03/27 07:04:09;;;;;;;2.85;2.00;;;5.40;99.90;;;;;;5040284;28;20052;-86
2021/03/27 07:07:09;;;;;;;2.33;1.70;;;5.20;99.90;;;;;;5039805;28;20076;-86
2021/03/27 07:14:00;;;;;;;3.38;1.40;;;6.30;99.90;;;;;;5059031;28;20366;-88
2021/03/27 07:17:04;;;;;;;4.20;1.35;;;7.20;99.90;;;;;;5052681;28;20408;-87
2021/03/27 07:24:01;;;;;;;4.55;1.40;;;8.10;99.90;;;;;;5058070;28;20538;-88
2021/03/27 07:31:07;;;;;;;2.65;1.15;;;8.50;99.90;;;;;;5038564;28;20045;-87
2021/03/27 07:34:11;;;;;;;5.13;1.42;;;8.10;99.90;;;;;;5051008;28;20045;-87
2021/03/27 07:37:15;;;;;;;1.40;1.30;;;8.20;99.90;;;;;;5055086;28;20331;-87
2021/03/27 07:40:50;;;;;;;3.22;1.30;;;7.90;99.90;;;;;;5040935;28;20197;-89
2021/03/27 07:43:54;;;;;;;2.63;1.52;;;7.70;99.90;;;;;;4979509;28;20050;-88
2021/03/27 07:46:58;;;;;;;2.05;1.10;;;7.70;99.90;;;;;;5042814;28;20084;-86
2021/03/27 07:50:10;;;;;;;2.85;1.27;;;7.70;99.90;;;;;;5037521;28;20059;-86
2021/03/27 07:57:08;;;;;;;4.05;1.30;;;8.20;99.90;;;;;;5018303;28;20144;-87
2021/03/27 08:08:04;;;;;;;1.50;0.80;;;8.70;99.90;;;;;;4949124;29;20070;-85
2021/03/27 08:11:24;;;;;;;2.03;1.05;;;8.70;95.20;;;;;;4946512;29;20417;-88
2021/03/27 08:14:11;;;;;;;1.63;1.20;;;8.20;95.80;;;;;;4938342;29;20044;-85
2021/03/27 08:16:47;;;;;;;2.47;1.20;;;8.50;92.50;;;;;;4950232;29;20047;-86
2021/03/27 08:19:38;;;;;;;1.60;0.95;;;9.20;89.60;;;;;;4957888;29;20389;-87
2021/03/27 08:22:29;;;;;;;2.72;1.10;;;9.30;88.30;;;;;;4957682;29;20055;-87
2021/03/27 08:25:35;;;;;;;3.63;1.60;;;9.50;90.00;;;;;;4977355;28;20134;-86
2021/03/27 08:28:41;;;;;;;5.03;1.42;;;10.20;84.10;;;;;;4969829;28;20058;-89
2021/03/27 08:31:29;;;;;;;3.88;1.60;;;11.00;76.70;;;;;;4996304;28;20062;-89
2021/03/27 08:34:21;;;;;;;2.25;1.25;;;11.60;74.40;;;;;;4979777;28;20118;-88
2021/03/27 08:37:24;;;;;;;1.42;0.90;;;10.70;71.40;;;;;;4995666;28;20471;-87
2021/03/27 08:40:10;;;;;;;2.33;1.20;;;9.80;73.10;;;;;;5022368;28;20160;-86
2021/03/27 08:43:03;;;;;;;2.83;0.98;;;10.30;73.00;;;;;;5037715;28;20119;-86
2021/03/27 08:45:35;;;;;;;2.70;0.95;;;10.80;69.10;;;;;;5037528;28;20426;-89
2021/03/27 08:48:35;;;;;;;2.05;0.93;;;11.00;67.10;;;;;;5052430;28;20453;-88
2021/03/27 08:51:52;;;;;;;3.30;1.38;;;10.60;67.40;;;;;;5037067;28;20117;-88
2021/03/27 08:54:44;;;;;;;1.90;0.90;;;9.60;70.20;;;;;;5019395;28;20061;-87
2021/03/27 08:57:23;;;;;;;1.90;1.05;;;9.50;75.40;;;;;;5053718;28;20123;-91
2021/03/27 09:00:28;;;;;;;2.13;0.90;;;10.30;71.60;;;;;;5053264;28;20411;-87
2021/03/27 09:03:22;;;;;;;1.10;0.68;;;11.00;68.00;;;;;;5051254;28;20049;-85
2021/03/27 09:06:11;;;;;;;1.95;1.00;;;12.00;62.70;;;;;;5050221;28;20049;-87
2021/03/27 09:08:46;;;;;;;3.53;0.93;;;11.70;60.60;;;;;;5048407;28;20107;-87
2021/03/27 09:11:29;;;;;;;1.58;0.80;;;12.10;59.40;;;;;;5041328;28;20077;-85
2021/03/27 09:14:14;;;;;;;1.33;0.80;;;12.50;57.80;;;;;;5060530;28;20099;-87
2021/03/27 09:17:13;;;;;;;3.05;0.95;;;12.00;56.60;;;;;;5064221;28;20049;-88
2021/03/27 09:19:58;;;;;;;4.45;1.88;;;11.40;59.30;;;;;;5052958;28;20045;-87
2021/03/27 09:22:47;;;;;;;3.72;1.10;;;11.40;60.80;;;;;;5064291;28;20072;-88
2021/03/27 09:25:31;;;;;;;2.22;1.00;;;11.10;61.00;;;;;;5040849;28;20080;-88
2021/03/27 09:28:11;;;;;;;2.83;0.85;;;11.10;61.10;;;;;;5075067;28;20060;-86
2021/03/27 09:31:15;;;;;;;2.38;1.00;;;11.40;59.90;;;;;;5060097;28;20041;-88
2021/03/27 09:33:58;;;;;;;1.48;0.90;;;11.30;58.90;;;;;;5036116;28;20080;-88
2021/03/27 09:37:03;;;;;;;1.52;0.80;;;12.50;57.90;;;;;;5038307;28;20046;-87
2021/03/27 09:39:48;;;;;;;1.83;0.90;;;12.60;55.90;;;;;;5039568;28;20468;-89
2021/03/27 09:42:14;;;;;;;1.52;0.80;;;13.10;53.70;;;;;;5038143;28;20410;-88
2021/03/27 09:45:12;;;;;;;2.42;0.85;;;13.20;53.50;;;;;;5044511;28;20423;-87
2021/03/27 09:48:18;;;;;;;2.10;0.73;;;13.30;55.00;;;;;;5047373;28;20084;-87
2021/03/27 09:51:04;;;;;;;1.77;0.70;;;13.90;52.40;;;;;;5013698;28;20049;-86
2021/03/27 09:53:51;;;;;;;1.98;0.63;;;13.60;51.40;;;;;;5044744;28;20045;-89
2021/03/27 09:56:44;;;;;;;2.35;1.45;;;13.20;51.00;;;;;;5054868;28;20052;-89
2021/03/27 09:59:36;;;;;;;2.28;0.70;;;12.90;52.10;;;;;;5057524;28;20068;-92
2021/03/27 10:02:21;;;;;;;2.67;1.27;;;13.00;52.10;;;;;;5055075;28;20071;-90
2021/03/27 10:04:53;;;;;;;1.30;0.77;;;13.30;52.30;;;;;;5043179;28;20121;-86
2021/03/27 10:07:27;;;;;;;;;;;14.30;51.30;;;;;;5047190;28;20072;-85
2021/03/27 10:10:02;;;;;;;1.85;0.70;;;15.00;49.00;;;;;;5043015;28;19947;-85
2021/03/27 10:12:44;;;;;;;1.58;0.77;;;14.50;48.70;;;;;;5044222;28;20045;-87
2021/03/27 10:15:32;;;;;;;1.67;0.55;;;14.50;47.00;;;;;;5050755;28;20183;-90
2021/03/27 10:18:23;;;;;;;2.78;0.80;;;14.90;46.90;;;;;;5060452;28;20068;-86
2021/03/27 10:21:06;;;;;;;2.50;0.90;;;14.90;46.60;;;;;;5063810;28;20064;-85
2021/03/27 10:24:05;;;;;;;3.42;1.10;;;14.80;45.20;;;;;;5069187;28;20114;-86
2021/03/27 10:27:10;;;;;;;3.72;0.80;;;14.90;45.40;;;;;;5055970;28;20053;-86
2021/03/27 10:30:00;;;;;;;2.17;0.60;;;15.00;45.40;;;;;;5069910;28;20067;-86
2021/03/27 10:32:33;;;;;;;1.40;0.70;;;14.80;45.90;;;;;;5057655;28;20049;-86
2021/03/27 10:35:28;;;;;;;2.72;0.85;;;14.90;44.60;;;;;;5057887;28;20143;-84
2021/03/27 10:38:16;;;;;;;3.25;0.80;;;15.00;45.40;;;;;;5062603;28;20076;-85
2021/03/27 10:41:14;;;;;;;3.25;0.80;;;14.70;44.80;;;;;;5049900;28;20196;-85
2021/03/27 10:44:23;;;;;;;2.35;0.60;;;13.90;46.00;;;;;;5033695;28;20128;-86
2021/03/27 10:47:31;;;;;;;1.80;0.70;;;14.30;45.00;;;;;;5039332;28;20045;-87
2021/03/27 10:50:13;;;;;;;1.02;0.60;;;15.00;43.80;;;;;;4989879;28;20050;-85
2021/03/27 10:52:45;;;;;;;2.35;0.75;;;14.10;45.00;;;;;;4995978;28;20276;-86
2021/03/27 10:56:01;;;;;;;3.10;1.00;;;13.10;46.30;;;;;;5052535;28;20088;-86
2021/03/27 10:59:06;;;;;;;1.77;0.88;;;13.10;48.20;;;;;;5065763;28;20037;-85
2021/03/27 11:01:55;;;;;;;2.70;0.88;;;12.60;47.50;;;;;;5068831;28;20085;-90
2021/03/27 11:04:33;;;;;;;1.98;0.80;;;11.70;50.50;;;;;;5067846;28;20052;-85
2021/03/27 11:07:18;;;;;;;3.38;0.95;;;11.20;51.40;;;;;;5068074;28;20040;-87
2021/03/27 11:09:54;;;;;;;2.88;0.90;;;10.90;52.80;;;;;;5067901;28;20045;-86
2021/03/27 11:12:26;;;;;;;1.77;0.90;;;11.40;53.10;;;;;;5055699;28;20154;-86
2021/03/27 11:14:52;;;;;;;2.20;0.77;;;12.60;51.70;;;;;;5065964;28;20143;-87
2021/03/27 11:17:42;;;;;;;4.28;0.90;;;12.10;49.70;;;;;;5072588;28;20068;-88
2021/03/27 11:20:52;;;;;;;1.85;0.88;;;11.90;50.70;;;;;;5036206;28;20044;-89
2021/03/27 11:23:32;;;;;;;1.48;0.73;;;13.50;47.90;;;;;;5067101;28;20061;-85
2021/03/27 11:26:26;;;;;;;2.20;0.82;;;15.30;46.40;;;;;;5053772;28;20543;-83
2021/03/27 11:29:27;;;;;;;2.83;1.15;;;16.70;42.80;;;;;;5045960;28;20402;-87
2021/03/27 11:32:03;;;;;;;2.65;0.80;;;17.30;41.80;;;;;;5056741;28;20072;-84
2021/03/27 11:34:36;;;;;;;4.13;0.73;;;17.70;40.90;;;;;;5059459;28;20042;-85
2021/03/27 11:37:35;;;;;;;2.30;0.70;;;18.30;39.10;;;;;;5062429;28;20056;-86
2021/03/27 11:40:24;;;;;;;2.33;0.73;;;18.60;37.90;;;;;;5067433;28;20092;-88
2021/03/27 11:43:20;;;;;;;2.97;1.00;;;18.80;37.30;;;;;;5051857;28;20115;-87
2021/03/27 11:45:56;;;;;;;3.10;0.75;;;19.70;37.10;;;;;;5033919;28;20068;-87
2021/03/27 11:48:29;;;;;;;2.97;1.10;;;19.70;35.20;;;;;;5047791;28;20053;-89
2021/03/27 11:51:04;;;;;;;5.18;1.38;;;19.30;36.40;;;;;;5049706;28;20114;-85
2021/03/27 11:53:58;;;;;;;5.80;1.40;;;19.50;35.10;;;;;;5057983;28;20040;-86
2021/03/27 11:56:38;;;;;;;3.72;1.52;;;19.60;34.90;;;;;;5056705;28;20045;-88
2021/03/27 11:59:42;;;;;;;3.45;0.90;;;19.90;35.10;;;;;;5059723;28;20126;-90
2021/03/27 12:02:46;;;;;;;4.75;1.50;;;19.10;35.40;;;;;;5057203;28;20360;-88
2021/03/27 12:05:32;;;;;;;3.50;1.52;;;17.30;39.60;;;;;;5037285;28;20072;-89
2021/03/27 12:08:20;;;;;;;4.43;1.27;;;16.90;38.80;;;;;;5049209;28;20432;-85
2021/03/27 12:11:12;;;;;;;3.15;1.15;;;16.70;38.40;;;;;;5056819;28;20056;-88
2021/03/27 12:14:03;;;;;;;4.40;1.55;;;16.60;38.50;;;;;;5058096;28;20178;-89
2021/03/27 12:16:35;;;;;;;3.47;1.42;;;17.60;38.20;;;;;;5059352;28;20080;-87
2021/03/27 12:19:21;;;;;;;4.55;1.75;;;17.50;38.10;;;;;;5052439;28;20037;-89
2021/03/27 12:22:21;;;;;;;3.45;1.50;;;18.20;37.50;;;;;;5041944;28;20042;-87
2021/03/27 12:25:37;;;;;;;3.03;1.15;;;19.10;35.50;;;;;;5036949;28;20047;-88
2021/03/27 12:28:22;;;;;;;1.88;1.02;;;18.30;34.00;;;;;;5049278;28;20541;-84
2021/03/27 12:30:52;;;;;;;2.75;1.50;;;17.00;36.70;;;;;;5042509;28;20049;-83
2021/03/27 12:33:58;;;;;;;2.65;0.95;;;16.80;37.60;;;;;;5051550;28;20064;-86
2021/03/27 12:36:35;;;;;;;3.60;1.15;;;14.10;39.20;;;;;;5166400;22;20166;-83
2021/03/27 12:39:15;;;;;;;5.35;1.50;;;12.10;44.60;;;;;;5073814;28;20127;-85
2021/03/27 12:41:57;;;;;;;2.90;1.02;;;13.10;45.20;;;;;;5071987;28;20373;-86
2021/03/27 12:44:47;;;;;;;5.57;1.55;;;14.90;42.80;;;;;;5069799;28;20072;-84
2021/03/27 12:47:39;;;;;;;4.70;1.95;;;15.60;40.90;;;;;;5122383;22;20071;-85
2021/03/27 12:53:10;;;;;;;3.83;1.40;;;14.10;42.60;;;;;;6135000;22;20144;-84
2021/03/27 12:55:59;;;;;;;2.00;0.95;;;13.20;42.80;;;;;;4989229;28;20074;-83
2021/03/27 12:59:11;;;;;;;9.48;1.42;;;12.60;44.90;;;;;;4993083;28;20047;-86
2021/03/27 13:01:50;;;;;;;2.38;0.95;;;14.10;43.90;;;;;;5011945;28;20073;-85
2021/03/27 13:04:38;;;;;;;2.30;0.90;;;14.60;41.70;;;;;;5000700;28;20098;-86
2021/03/27 13:07:07;;;;;;;3.80;1.08;;;15.50;40.40;;;;;;5015458;28;20108;-88
2021/03/27 13:09:55;;;;;;;3.30;1.10;;;15.40;39.10;;;;;;5014746;28;20467;-84
2021/03/27 13:12:42;;;;;;;2.30;0.80;;;15.30;40.20;;;;;;5014213;28;20046;-86
2021/03/27 13:15:35;;;;;;;2.95;1.77;;;15.20;40.30;;;;;;4994098;28;20486;-85
2021/03/27 13:18:27;;;;;;;6.20;2.05;;;15.20;40.00;;;;;;4982059;28;20173;-86
2021/03/27 13:21:11;;;;;;;;;;;13.80;42.30;;;;;;4996315;28;20046;-85
2021/03/27 13:24:04;;;;;;;3.90;1.48;;;12.80;43.90;;;;;;4995039;28;19933;-85
2021/03/27 13:26:33;;;;;;;3.53;1.40;;;12.30;45.70;;;;;;4972998;28;20070;-84
2021/03/27 13:29:34;;;;;;;2.88;1.20;;;12.00;46.40;;;;;;4996602;28;20092;-83
2021/03/27 13:32:16;;;;;;;3.95;1.10;;;12.20;46.00;;;;;;4971973;28;20100;-84
2021/03/27 13:35:06;;;;;;;4.00;1.33;;;12.30;45.90;;;;;;4980900;28;20081;-86
2021/03/27 13:37:52;;;;;;;4.53;1.20;;;11.50;47.40;;;;;;4990607;28;20074;-82
2021/03/27 13:40:26;;;;;;;4.68;1.83;;;10.70;49.80;;;;;;5007740;28;20058;-83
2021/03/27 13:43:10;;;;;;;4.28;1.70;;;10.20;51.40;;;;;;4987213;28;20459;-86
2021/03/27 13:45:55;;;;;;;3.25;1.25;;;10.20;52.10;;;;;;4998176;28;20058;-86
2021/03/27 13:48:37;;;;;;;3.15;1.38;;;10.70;51.80;;;;;;4999490;28;20054;-85
2021/03/27 13:51:22;;;;;;;3.75;1.75;;;10.90;51.10;;;;;;4989343;28;20069;-84
2021/03/27 13:54:11;;;;;;;4.57;1.52;;;12.20;49.70;;;;;;4996185;28;20105;-85
2021/03/27 13:56:52;;;;;;;3.05;1.25;;;14.40;46.50;;;;;;5005979;28;20070;-88
2021/03/27 13:59:19;;;;;;;5.68;1.50;;;15.80;41.80;;;;;;4989179;28;20051;-85
2021/03/27 14:02:19;;;;;;;3.83;1.58;;;14.20;42.50;;;;;;4969470;28;20130;-84
2021/03/27 14:04:55;;;;;;;5.03;1.10;;;13.60;45.90;;;;;;4994273;28;20050;-87
2021/03/27 14:07:25;;;;;;;3.72;1.25;;;13.00;45.00;;;;;;4986933;28;20100;-88
2021/03/27 14:10:18;;;;;;;3.55;1.30;;;12.40;46.20;;;;;;5001731;28;20470;-87
2021/03/27 14:13:01;;;;;;;6.30;1.40;;;11.80;47.50;;;;;;5001388;28;20043;-89
2021/03/27 14:15:38;;;;;;;3.15;1.33;;;11.20;49.50;;;;;;5010200;28;20056;-87
2021/03/27 14:18:43;;;;;;;3.42;1.38;;;12.00;49.40;;;;;;5274212;23;20080;-86
2021/03/27 14:21:43;;;;;;;3.70;1.90;;;13.00;47.20;;;;;;4998760;28;20426;-88
2021/03/27 14:24:29;;;;;;;8.10;2.88;;;14.70;44.60;;;;;;5029459;28;20046;-89
2021/03/27 14:27:19;;;;;;;2.13;1.40;;;15.50;42.30;;;;;;5018731;28;20112;-88
2021/03/27 14:30:09;;;;;;;9.63;2.40;;;14.40;41.30;;;;;;5004540;28;20050;-88
2021/03/27 14:33:24;;;;;;;2.55;1.20;;;14.40;41.90;;;;;;4959280;28;20066;-88
2021/03/27 14:36:05;;;;;;;2.45;1.17;;;14.40;40.80;;;;;;5021079;28;20050;-88
2021/03/27 14:39:22;;;;;;;4.47;1.10;;;14.70;40.30;;;;;;5008201;28;20073;-88
2021/03/27 14:42:09;;;;;;;2.50;1.50;;;14.20;41.20;;;;;;4955745;28;20041;-89
2021/03/27 14:45:11;;;;;;;4.07;1.23;;;14.80;40.60;;;;;;5000527;28;20070;-87
2021/03/27 14:48:32;;;;;;;4.30;1.17;;;13.10;42.70;;;;;;4946145;28;20039;-85
2021/03/27 14:51:33;;;;;;;3.95;1.13;;;11.50;46.30;;;;;;5007611;28;20112;-88
2021/03/27 14:54:36;;;;;;;4.93;1.30;;;10.70;49.00;;;;;;5023771;28;21189;-88
2021/03/27 14:57:31;;;;;;;5.35;2.10;;;10.20;49.90;;;;;;5020527;28;20064;-88
2021/03/27 15:00:20;;;;;;;2.95;1.70;;;10.20;50.80;;;;;;5005375;28;20057;-86
2021/03/27 15:03:14;;;;;;;5.90;2.00;;;9.90;50.80;;;;;;5005364;28;20061;-86
2021/03/27 15:05:47;;;;;;;5.32;1.95;;;9.70;51.70;;;;;;4993549;28;20045;-86
2021/03/27 15:08:34;;;;;;;5.57;1.50;;;9.60;51.80;;;;;;5019819;28;20060;-88
2021/03/27 15:11:19;;;;;;;6.15;1.40;;;9.50;52.20;;;;;;5022285;28;20045;-88
2021/03/27 15:14:00;;;;;;;5.70;1.88;;;9.50;52.70;;;;;;5030231;28;20053;-87
2021/03/27 15:16:55;;;;;;;4.78;1.65;;;9.40;53.40;;;;;;5018678;28;20034;-86
2021/03/27 15:19:52;;;;;;;6.00;2.00;;;9.60;53.60;;;;;;4997264;28;20066;-87
2021/03/27 15:22:29;;;;;;;2.88;1.58;;;9.80;53.90;;;;;;5038971;28;20054;-88
2021/03/27 15:28:46;;;;;;;3.28;1.60;;;9.70;54.00;;;;;;5016428;28;20068;-88